ADDS METAR Data INFO
IDs: Format: Raw Decoded Include TAF

Data at: 1504 UTC 11 Dec 2017

KERY 111455Z AUTO 15004KT 10SM -SN OVC022 M10/M11 A2987 RMK AO2 T11001107
KERY 111435Z AUTO 13005KT 7SM -SN OVC022 M10/M11 A2988 RMK AO2 T11031107
KERY 111415Z AUTO 12005KT 7SM -SN OVC022 M10/M11 A2989 RMK AO2 T11051108
KERY 111355Z AUTO 11005KT 10SM OVC022 M10/M11 A2990 RMK AO2 T11041108
KERY 111335Z AUTO 00000KT 10SM OVC022 M10/M11 A2991 RMK AO2 T11051108
KERY 111315Z AUTO 00000KT 10SM OVC022 M10/M11 A2991 RMK AO2 T11051108
KERY 111255Z AUTO 10003KT 10SM OVC022 M10/M11 A2990 RMK AO2 T11051110
KERY 111235Z AUTO 00000KT 10SM BKN024 OVC029 M11/M11 A2991 RMK AO2 T11061110
KERY 111215Z AUTO 00000KT 10SM BKN029 OVC100 M11/M11 A2991 RMK AO2 T11071111
KERY 111155Z AUTO 00000KT 10SM BKN029 OVC110 M11/M11 A2992 RMK AO2 T11061110 11098 21106
KERY 111135Z AUTO 00000KT 10SM OVC029 M10/M11 A2992 RMK AO2 T11051109
KERY 111115Z AUTO 00000KT 10SM OVC029 M10/M11 A2992 RMK AO2 T11031108
KERY 111055Z AUTO 23003KT 10SM OVC029 M10/M11 A2992 RMK AO2 T11031107
KERY 111035Z AUTO 20004KT 10SM OVC029 M10/M11 A2992 RMK AO2 T11051110
KERY 111015Z AUTO 20004KT 10SM OVC029 M10/M11 A2993 RMK AO2 T11051109
KERY 110955Z AUTO 20004KT 10SM OVC029 M10/M11 A2993 RMK AO2 T11051109
KERY 110935Z AUTO 17005KT 10SM OVC029 M11/M11 A2993 RMK AO2 T11061110
KERY 110915Z AUTO 17004KT 10SM SCT008 OVC029 M11/M11 A2993 RMK AO2 T11061110
KERY 110855Z AUTO 15005KT 10SM -SN BKN010 OVC029 M10/M11 A2995 RMK AO2 T11051110
KERY 110835Z AUTO 14004KT 5SM -SN BKN010 OVC029 M10/M11 A2996 RMK AO2 T11051108
KERY 110815Z AUTO 00000KT 5SM -SN BKN012 OVC019 M10/M11 A2997 RMK AO2 T11051110
KERY 110755Z AUTO 00000KT 7SM -SN SCT012 SCT021 OVC029 M11/M11 A2998 RMK AO2 T11061110
KERY 110735Z AUTO 00000KT 10SM -SN SCT019 SCT024 OVC029 M10/M11 A2998 RMK AO2 T11051109
KERY 110715Z AUTO 00000KT 7SM -SN SCT017 BKN024 OVC029 M10/M11 A2998 RMK AO2 T11051108
KERY 110655Z AUTO 00000KT 5SM -SN BKN017 BKN025 OVC033 M10/M11 A2998 RMK AO2 T11041107
KERY 110635Z AUTO 00000KT 10SM BKN021 OVC033 M10/M11 A2998 RMK AO2 T10991111
KERY 110615Z AUTO 00000KT 10SM OVC033 M10/M11 A2999 RMK AO2 T11011110
KERY 110555Z AUTO 00000KT 10SM OVC033 M10/M11 A2998 RMK AO2 T11011110 11099 21106 410651106
KERY 110535Z AUTO 00000KT 10SM OVC035 M10/M11 A2997 RMK AO2 T11031110
KERY 110515Z AUTO 00000KT 10SM OVC033 M10/M11 A2996 RMK AO2 T11001111
KERY 110455Z AUTO 00000KT 10SM OVC033 M10/M11 A2997 RMK AO2 T11001111
KERY 110436Z AUTO 00000KT 10SM OVC032 M10/M11 A2997 RMK AO2 T11001112
KERY 110415Z AUTO 00000KT 10SM -SN SCT027 OVC032 M10/M11 A2998 RMK AO2 T11011112
KERY 110355Z AUTO 28003KT 7SM -SN SCT024 OVC031 M10/M11 A2997 RMK AO2 T11001110
KERY 110335Z AUTO 27003KT 7SM -SN BKN032 OVC037 M10/M11 A2998 RMK AO2 T11011112
KERY 110315Z AUTO 27003KT 10SM OVC036 M10/M11 A2997 RMK AO2 T11011112
KERY 110255Z AUTO 27004KT 10SM OVC034 M10/M11 A2998 RMK AO2 T11021112
KERY 110235Z AUTO 28004KT 10SM BKN029 OVC034 M10/M12 A2997 RMK AO2 T11001121
KERY 110215Z AUTO 28004KT 10SM OVC030 M10/M12 A2997 RMK AO2 T10991122
KERY 110155Z AUTO 31003KT 10SM BKN030 OVC035 M10/M13 A2997 RMK AO2 T11001126
KERY 110135Z AUTO 00000KT 10SM OVC030 M10/M13 A2997 RMK AO2 T11001126
KERY 110115Z AUTO 31006KT 10SM OVC030 M10/M13 A2997 RMK AO2 T11001127
KERY 110055Z AUTO 31003KT 10SM OVC030 M10/M12 A2997 RMK AO2 T11031121
KERY 110035Z AUTO 33004KT 10SM SCT014 OVC029 M10/M12 A2996 RMK AO2 T11041120
KERY 110015Z AUTO 32005KT 3SM -SN SCT014 SCT026 OVC033 M10/M12 A2996 RMK AO2 T11051120
KERY 102355Z AUTO 28004KT 4SM -SN SCT009 SCT016 OVC031 M10/M12 A2996 RMK AO2 T11051124 11070 21106
KERY 102335Z AUTO 28003KT 7SM -SN SCT018 SCT025 OVC031 M10/M12 A2995 RMK AO2 T11051125
KERY 102315Z AUTO 31003KT 7SM OVC031 M10/M13 A2994 RMK AO2 T11051129
KERY 102255Z AUTO 32005KT 7SM OVC029 M10/M13 A2994 RMK AO2 T11041131
KERY 102235Z AUTO 33003KT 10SM SCT016 OVC031 M10/M13 A2993 RMK AO2 T11051129
KERY 102215Z AUTO 32005KT 5SM -SN SCT017 SCT026 OVC033 M10/M12 A2992 RMK AO2 T11051121
KERY 102155Z AUTO 34005KT 7SM SCT029 OVC033 M10/M12 A2990 RMK AO2 T11051125
KERY 102135Z AUTO 33005KT 10SM SCT021 OVC030 M10/M13 A2989 RMK AO2 T11031130
KERY 102115Z AUTO 33004KT 7SM BKN021 OVC026 M10/M13 A2988 RMK AO2 T11011128
KERY 102055Z AUTO 33006G15KT 10SM OVC024 M10/M13 A2987 RMK AO2 T10981135
KERY 102035Z AUTO 33008G17KT 7SM -SN OVC024 M10/M13 A2986 RMK AO2 T10961133
KERY 102015Z AUTO 32011G17KT 10SM OVC024 M09/M13 A2985 RMK AO2 T10941135
KERY 101955Z AUTO 34011G17KT 10SM -SN OVC020 M09/M12 A2984 RMK AO2 T10911123
KERY 101935Z AUTO 34010G16KT 290V350 7SM -SN OVC018 M08/M11 A2983 RMK AO2 T10851112
KERY 101915Z AUTO 33007G16KT 5SM -SN OVC018 M08/M11 A2983 RMK AO2 T10851111
KERY 101855Z AUTO 33007G16KT 7SM -SN SCT013 OVC018 M08/M11 A2982 RMK AO2 T10851106
KERY 101835Z AUTO 35009G17KT 1SM -SN BKN013 OVC025 M08/M09 A2981 RMK AO2 T10801092
KERY 101815Z AUTO 35009G20KT 1 3/4SM -SN BKN013 OVC019 M08/M09 A2980 RMK AO2 T10761095
KERY 101755Z AUTO 34009G14KT 4SM -SN OVC013 M07/M09 A2979 RMK AO2 T10701087 11065 21096
KERY 101735Z AUTO 35007KT 4SM -SN BKN013 OVC021 M07/M08 A2979 RMK AO2 T10701083
KERY 101715Z AUTO 35009KT 3SM -SN BKN013 OVC020 M07/M08 A2978 RMK AO2 T10661080
KERY 101655Z AUTO 01009KT 2SM -SN OVC013 M07/M07 A2978 RMK AO2 VIS 1 1/2V3 T10661075
KERY 101636Z AUTO 35007KT 3SM -SN BKN011 BKN019 OVC030 M07/M07 A2977 RMK AO2 T10661074
KERY 101615Z AUTO 33005KT 1 1/2SM -SN BKN009 OVC019 M07/M08 A2977 RMK AO2 T10691076
KERY 101555Z AUTO 29006KT 1/2SM SN BKN007 OVC013 M07/M08 A2976 RMK AO2 T10741078
KERY 101536Z AUTO 29004KT 5SM -SN SCT019 SCT027 OVC035 M08/M08 A2976 RMK AO2 T10761080
KERY 101515Z AUTO 26008KT 7SM -SN SCT034 OVC039 M08/M08 A2975 RMK AO2 T10811085
KERY 101455Z AUTO 26009KT 4SM -SN SCT015 SCT020 OVC039 M08/M09 A2975 RMK AO2 T10841089
KERY 101436Z AUTO 26008KT 7SM -SN SCT015 BKN031 OVC038 M09/M09 A2974 RMK AO2 T10861090
KERY 101415Z AUTO 25010KT 4SM -SN SCT021 OVC036 M09/M09 A2974 RMK AO2 T10881092
KERY 101355Z AUTO 25009KT 4SM -SN SCT023 SCT028 OVC036 M09/M09 A2973 RMK AO2 T10901095
KERY 101335Z AUTO 25008KT 1 1/2SM -SN SCT017 OVC027 M09/M10 A2973 RMK AO2 T10921099
KERY 101315Z AUTO 25009KT 10SM SCT034 OVC070 M09/M10 A2973 RMK AO2 T10931105
KERY 101255Z AUTO 24011KT 10SM SCT015 OVC070 M09/M11 A2972 RMK AO2 T10951106
KERY 101235Z AUTO 24011KT 4SM -SN SCT023 BKN070 OVC090 M10/M11 A2972 RMK AO2 T10961107
KERY 101215Z AUTO 24010KT 7SM -SN SCT017 BKN031 OVC090 M10/M11 A2972 RMK AO2 T10961109
KERY 101155Z AUTO 24009KT 5SM -SN SCT014 OVC021 M09/M11 A2973 RMK AO2 T10951115 11093 21101
KERY 101135Z AUTO 23010KT 10SM BKN023 OVC029 M10/M12 A2974 RMK AO2 T10961117
KERY 101115Z AUTO 24012KT 10SM SCT027 BKN040 OVC090 M10/M12 A2973 RMK AO2 T11001121
KERY 101055Z AUTO 24011KT 10SM SCT080 OVC085 M10/M12 A2974 RMK AO2 T10981119
KERY 101035Z AUTO 23012KT 10SM OVC080 M10/M12 A2974 RMK AO2 T11001119
KERY 101015Z AUTO 24008KT 10SM OVC090 M10/M12 A2975 RMK AO2 T11001120
KERY 100955Z AUTO 25009KT 10SM OVC090 M10/M12 A2975 RMK AO2 T11001118
KERY 100935Z AUTO 23010KT 10SM OVC100 M10/M12 A2975 RMK AO2 T11001117
KERY 100915Z AUTO 24009KT 10SM OVC100 M10/M12 A2976 RMK AO2 T11001117
KERY 100855Z AUTO 24008KT 10SM SCT042 OVC100 M10/M11 A2976 RMK AO2 T11011115
KERY 100835Z AUTO 25009KT 5SM BR BKN044 OVC100 M10/M11 A2977 RMK AO2 T11001115
KERY 100815Z AUTO 23009KT 7SM OVC044 M10/M12 A2977 RMK AO2 T11001116
KERY 100755Z AUTO 23008KT 7SM OVC046 M10/M12 A2977 RMK AO2 T11001117
KERY 100735Z AUTO 24008KT 7SM SCT043 OVC049 M10/M12 A2978 RMK AO2 T10981117
KERY 100715Z AUTO 24011KT 7SM OVC044 M10/M12 A2978 RMK AO2 T10971117
KERY 100655Z AUTO 24011KT 10SM OVC046 M10/M12 A2979 RMK AO2 T10961117
KERY 100635Z AUTO 24009KT 7SM BKN050 OVC055 M09/M12 A2979 RMK AO2 T10951117
KERY 100615Z AUTO 24010KT 10SM OVC055 M09/M12 A2980 RMK AO2 T10941118
KERY 100555Z AUTO 24009KT 10SM BKN065 OVC075 M09/M12 A2981 RMK AO2 T10951118 11085 21095 410561107
KERY 100535Z AUTO 24009KT 10SM BKN075 OVC085 M09/M12 A2981 RMK AO2 T10931117
KERY 100515Z AUTO 24009KT 10SM SCT035 BKN075 OVC085 M09/M12 A2982 RMK AO2 T10941116
KERY 100455Z AUTO 23010KT 7SM -SN SCT031 BKN038 OVC065 M09/M11 A2983 RMK AO2 T10931114
KERY 100435Z AUTO 24011KT 7SM -SN OVC033 M09/M11 A2984 RMK AO2 T10911111
KERY 100415Z AUTO 25010KT 7SM -SN OVC033 M09/M10 A2984 RMK AO2 T10901105
KERY 100355Z AUTO 24010KT 10SM BKN030 OVC036 M09/M10 A2984 RMK AO2 T10871100
KERY 100335Z AUTO 24010KT 10SM OVC030 M09/M09 A2985 RMK AO2 T10861090
KERY 100315Z AUTO 24007KT 10SM SCT016 BKN028 OVC100 M08/M09 A2985 RMK AO2 T10851090